sensor_id;sensor_type;location;lat;lon;timestamp;temperature;humidity
17152;DHT22;8691;50.828;4.700;2023-08-17T00:02:19;20.30;99.90
17152;DHT22;8691;50.828;4.700;2023-08-17T00:04:45;20.30;99.90
17152;DHT22;8691;50.828;4.700;2023-08-17T00:07:12;20.20;99.90
17152;DHT22;8691;50.828;4.700;2023-08-17T00:09:39;20.00;99.90
17152;DHT22;8691;50.828;4.700;2023-08-17T00:12:06;20.00;99.90
17152;DHT22;8691;50.828;4.700;2023-08-17T00:14:33;19.80;99.90
17152;DHT22;8691;50.828;4.700;2023-08-17T00:17:00;19.80;99.90
17152;DHT22;8691;50.828;4.700;2023-08-17T00:19:27;19.80;99.90
17152;DHT22;8691;50.828;4.700;2023-08-17T00:21:54;19.60;99.90
17152;DHT22;8691;50.828;4.700;2023-08-17T00:24:22;19.60;99.90
17152;DHT22;8691;50.828;4.700;2023-08-17T00:26:49;19.60;99.90
17152;DHT22;8691;50.828;4.700;2023-08-17T00:29:16;19.60;99.90
17152;DHT22;8691;50.828;4.700;2023-08-17T00:31:43;19.60;99.90
17152;DHT22;8691;50.828;4.700;2023-08-17T00:34:10;19.60;99.90
17152;DHT22;8691;50.828;4.700;2023-08-17T00:36:36;19.70;99.90
17152;DHT22;8691;50.828;4.700;2023-08-17T00:39:03;19.70;99.90
17152;DHT22;8691;50.828;4.700;2023-08-17T00:41:31;19.80;99.90
17152;DHT22;8691;50.828;4.700;2023-08-17T00:43:58;19.70;99.90
17152;DHT22;8691;50.828;4.700;2023-08-17T00:46:25;19.80;99.90
17152;DHT22;8691;50.828;4.700;2023-08-17T00:48:52;19.80;99.90
17152;DHT22;8691;50.828;4.700;2023-08-17T00:51:18;19.80;99.90
17152;DHT22;8691;50.828;4.700;2023-08-17T00:53:45;19.80;99.90
17152;DHT22;8691;50.828;4.700;2023-08-17T00:56:12;19.80;99.90
17152;DHT22;8691;50.828;4.700;2023-08-17T00:58:39;19.80;99.90
17152;DHT22;8691;50.828;4.700;2023-08-17T01:01:05;19.80;99.90
17152;DHT22;8691;50.828;4.700;2023-08-17T01:03:32;19.80;99.90
17152;DHT22;8691;50.828;4.700;2023-08-17T01:06:00;19.80;99.90
17152;DHT22;8691;50.828;4.700;2023-08-17T01:08:27;19.70;99.90
17152;DHT22;8691;50.828;4.700;2023-08-17T01:13:48;19.70;99.90
17152;DHT22;8691;50.828;4.700;2023-08-17T01:16:14;19.60;99.90
17152;DHT22;8691;50.828;4.700;2023-08-17T01:18:40;19.60;99.90
17152;DHT22;8691;50.828;4.700;2023-08-17T01:21:08;19.60;99.90
17152;DHT22;8691;50.828;4.700;2023-08-17T01:23:34;19.50;99.90
17152;DHT22;8691;50.828;4.700;2023-08-17T01:26:02;19.50;99.90
17152;DHT22;8691;50.828;4.700;2023-08-17T01:28:28;19.50;99.90
17152;DHT22;8691;50.828;4.700;2023-08-17T01:31:03;19.50;99.90
17152;DHT22;8691;50.828;4.700;2023-08-17T01:33:33;19.50;99.90
17152;DHT22;8691;50.828;4.700;2023-08-17T01:38:38;19.40;99.90
17152;DHT22;8691;50.828;4.700;2023-08-17T01:41:05;19.30;99.90
17152;DHT22;8691;50.828;4.700;2023-08-17T01:43:31;19.30;99.90
17152;DHT22;8691;50.828;4.700;2023-08-17T01:45:59;19.30;99.90
17152;DHT22;8691;50.828;4.700;2023-08-17T01:48:25;19.20;99.90
17152;DHT22;8691;50.828;4.700;2023-08-17T01:50:52;19.20;99.90
17152;DHT22;8691;50.828;4.700;2023-08-17T01:53:19;19.20;99.90
17152;DHT22;8691;50.828;4.700;2023-08-17T01:55:45;19.30;99.90
17152;DHT22;8691;50.828;4.700;2023-08-17T01:58:12;19.30;99.90
17152;DHT22;8691;50.828;4.700;2023-08-17T02:00:39;19.30;99.90
17152;DHT22;8691;50.828;4.700;2023-08-17T02:03:05;19.40;99.90
17152;DHT22;8691;50.828;4.700;2023-08-17T02:05:32;19.40;99.90
17152;DHT22;8691;50.828;4.700;2023-08-17T02:07:58;19.40;99.90
17152;DHT22;8691;50.828;4.700;2023-08-17T02:10:25;19.50;99.90
17152;DHT22;8691;50.828;4.700;2023-08-17T02:12:52;19.50;99.90
17152;DHT22;8691;50.828;4.700;2023-08-17T02:15:19;19.50;99.90
17152;DHT22;8691;50.828;4.700;2023-08-17T02:17:45;19.50;99.90
17152;DHT22;8691;50.828;4.700;2023-08-17T02:20:12;19.50;99.90
17152;DHT22;8691;50.828;4.700;2023-08-17T02:22:39;19.50;99.90
17152;DHT22;8691;50.828;4.700;2023-08-17T02:25:06;19.50;99.90
17152;DHT22;8691;50.828;4.700;2023-08-17T02:27:33;19.60;99.90
17152;DHT22;8691;50.828;4.700;2023-08-17T02:30:00;19.60;99.90
17152;DHT22;8691;50.828;4.700;2023-08-17T02:32:26;19.60;99.90
17152;DHT22;8691;50.828;4.700;2023-08-17T02:34:53;19.50;99.90
17152;DHT22;8691;50.828;4.700;2023-08-17T02:37:20;19.50;99.90
17152;DHT22;8691;50.828;4.700;2023-08-17T02:39:47;19.40;99.90
17152;DHT22;8691;50.828;4.700;2023-08-17T02:42:13;19.30;99.90
17152;DHT22;8691;50.828;4.700;2023-08-17T02:44:41;19.30;99.90
17152;DHT22;8691;50.828;4.700;2023-08-17T02:47:07;19.20;99.90
17152;DHT22;8691;50.828;4.700;2023-08-17T02:49:34;19.10;99.90
17152;DHT22;8691;50.828;4.700;2023-08-17T02:52:01;19.00;99.90
17152;DHT22;8691;50.828;4.700;2023-08-17T02:54:27;19.00;99.90
17152;DHT22;8691;50.828;4.700;2023-08-17T02:56:54;18.80;99.90
17152;DHT22;8691;50.828;4.700;2023-08-17T02:59:21;18.80;99.90
17152;DHT22;8691;50.828;4.700;2023-08-17T03:01:47;18.80;99.90
17152;DHT22;8691;50.828;4.700;2023-08-17T03:04:14;18.80;99.90
17152;DHT22;8691;50.828;4.700;2023-08-17T03:06:40;18.90;99.90
17152;DHT22;8691;50.828;4.700;2023-08-17T03:09:08;18.90;99.90
17152;DHT22;8691;50.828;4.700;2023-08-17T03:11:34;18.90;99.90
17152;DHT22;8691;50.828;4.700;2023-08-17T03:14:01;18.90;99.90
17152;DHT22;8691;50.828;4.700;2023-08-17T03:16:28;19.00;99.90
17152;DHT22;8691;50.828;4.700;2023-08-17T03:18:54;19.00;99.90
17152;DHT22;8691;50.828;4.700;2023-08-17T03:21:21;19.00;99.90
17152;DHT22;8691;50.828;4.700;2023-08-17T03:23:48;19.00;99.90
17152;DHT22;8691;50.828;4.700;2023-08-17T03:26:15;19.00;99.90
17152;DHT22;8691;50.828;4.700;2023-08-17T03:28:42;18.90;99.90
17152;DHT22;8691;50.828;4.700;2023-08-17T03:31:09;18.90;99.90
17152;DHT22;8691;50.828;4.700;2023-08-17T03:33:36;18.90;99.90
17152;DHT22;8691;50.828;4.700;2023-08-17T03:36:03;18.90;99.90
17152;DHT22;8691;50.828;4.700;2023-08-17T03:38:30;18.90;99.90
17152;DHT22;8691;50.828;4.700;2023-08-17T03:40:57;18.90;99.90
17152;DHT22;8691;50.828;4.700;2023-08-17T03:43:24;18.90;99.90
17152;DHT22;8691;50.828;4.700;2023-08-17T03:45:51;18.90;99.90
17152;DHT22;8691;50.828;4.700;2023-08-17T03:48:17;18.90;99.90
17152;DHT22;8691;50.828;4.700;2023-08-17T03:50:44;18.90;99.90
17152;DHT22;8691;50.828;4.700;2023-08-17T03:53:10;18.90;99.90
17152;DHT22;8691;50.828;4.700;2023-08-17T03:55:37;18.80;99.90
17152;DHT22;8691;50.828;4.700;2023-08-17T03:58:04;18.90;99.90
17152;DHT22;8691;50.828;4.700;2023-08-17T04:00:31;18.90;99.90
17152;DHT22;8691;50.828;4.700;2023-08-17T04:02:57;18.80;99.90
17152;DHT22;8691;50.828;4.700;2023-08-17T04:05:24;18.90;99.90
17152;DHT22;8691;50.828;4.700;2023-08-17T04:07:50;18.90;99.90
17152;DHT22;8691;50.828;4.700;2023-08-17T04:10:17;18.90;99.90
17152;DHT22;8691;50.828;4.700;2023-08-17T04:12:44;18.90;99.90
17152;DHT22;8691;50.828;4.700;2023-08-17T04:15:11;19.00;99.90
17152;DHT22;8691;50.828;4.700;2023-08-17T04:17:37;18.90;99.90
17152;DHT22;8691;50.828;4.700;2023-08-17T04:20:04;18.90;99.90
17152;DHT22;8691;50.828;4.700;2023-08-17T04:22:32;18.90;99.90
17152;DHT22;8691;50.828;4.700;2023-08-17T04:24:58;18.80;99.90
17152;DHT22;8691;50.828;4.700;2023-08-17T04:27:26;18.90;99.90
17152;DHT22;8691;50.828;4.700;2023-08-17T04:29:52;18.90;99.90
17152;DHT22;8691;50.828;4.700;2023-08-17T04:32:20;18.80;99.90
17152;DHT22;8691;50.828;4.700;2023-08-17T04:34:46;18.90;99.90
17152;DHT22;8691;50.828;4.700;2023-08-17T04:37:14;18.90;99.90
17152;DHT22;8691;50.828;4.700;2023-08-17T04:39:40;18.90;99.90
17152;DHT22;8691;50.828;4.700;2023-08-17T04:42:07;18.80;99.90
17152;DHT22;8691;50.828;4.700;2023-08-17T04:44:33;18.80;99.90
17152;DHT22;8691;50.828;4.700;2023-08-17T04:47:00;18.80;99.90
17152;DHT22;8691;50.828;4.700;2023-08-17T04:49:27;18.80;99.90
17152;DHT22;8691;50.828;4.700;2023-08-17T04:51:53;18.80;99.90
17152;DHT22;8691;50.828;4.700;2023-08-17T04:54:20;18.80;99.90
17152;DHT22;8691;50.828;4.700;2023-08-17T04:56:46;18.80;99.90
17152;DHT22;8691;50.828;4.700;2023-08-17T04:59:13;18.90;99.90
17152;DHT22;8691;50.828;4.700;2023-08-17T05:01:40;18.90;99.90
17152;DHT22;8691;50.828;4.700;2023-08-17T05:04:06;18.80;99.90
17152;DHT22;8691;50.828;4.700;2023-08-17T05:06:33;18.90;99.90
17152;DHT22;8691;50.828;4.700;2023-08-17T05:08:59;18.80;99.90
17152;DHT22;8691;50.828;4.700;2023-08-17T05:11:26;18.80;99.90
17152;DHT22;8691;50.828;4.700;2023-08-17T05:13:53;18.80;99.90
17152;DHT22;8691;50.828;4.700;2023-08-17T05:16:20;18.70;99.90
17152;DHT22;8691;50.828;4.700;2023-08-17T05:18:46;18.70;99.90
17152;DHT22;8691;50.828;4.700;2023-08-17T05:21:13;18.80;99.90
17152;DHT22;8691;50.828;4.700;2023-08-17T05:23:40;18.80;99.90
17152;DHT22;8691;50.828;4.700;2023-08-17T05:26:07;18.80;99.90
17152;DHT22;8691;50.828;4.700;2023-08-17T05:28:34;18.80;99.90
17152;DHT22;8691;50.828;4.700;2023-08-17T05:31:05;18.80;99.90
17152;DHT22;8691;50.828;4.700;2023-08-17T05:33:31;18.80;99.90
17152;DHT22;8691;50.828;4.700;2023-08-17T05:35:59;18.90;99.90
17152;DHT22;8691;50.828;4.700;2023-08-17T05:38:25;18.90;99.90
17152;DHT22;8691;50.828;4.700;2023-08-17T05:40:55;19.00;99.90
17152;DHT22;8691;50.828;4.700;2023-08-17T05:43:22;19.00;99.90
17152;DHT22;8691;50.828;4.700;2023-08-17T05:45:48;19.00;99.90
17152;DHT22;8691;50.828;4.700;2023-08-17T05:48:15;19.00;99.90
17152;DHT22;8691;50.828;4.700;2023-08-17T05:50:42;19.10;99.90
17152;DHT22;8691;50.828;4.700;2023-08-17T05:53:08;19.10;99.90
17152;DHT22;8691;50.828;4.700;2023-08-17T05:55:35;19.10;99.90
17152;DHT22;8691;50.828;4.700;2023-08-17T05:58:02;19.20;99.90
17152;DHT22;8691;50.828;4.700;2023-08-17T06:00:28;19.10;99.90
17152;DHT22;8691;50.828;4.700;2023-08-17T06:02:55;19.20;99.90
17152;DHT22;8691;50.828;4.700;2023-08-17T06:05:23;19.20;99.90
17152;DHT22;8691;50.828;4.700;2023-08-17T06:07:48;19.10;99.90
17152;DHT22;8691;50.828;4.700;2023-08-17T06:10:15;19.10;99.90
17152;DHT22;8691;50.828;4.700;2023-08-17T06:12:41;19.10;99.90
17152;DHT22;8691;50.828;4.700;2023-08-17T06:15:08;19.10;99.90
17152;DHT22;8691;50.828;4.700;2023-08-17T06:17:35;19.10;99.90
17152;DHT22;8691;50.828;4.700;2023-08-17T06:20:02;19.10;99.90
17152;DHT22;8691;50.828;4.700;2023-08-17T06:22:28;19.20;99.90
17152;DHT22;8691;50.828;4.700;2023-08-17T06:24:55;19.30;99.90
17152;DHT22;8691;50.828;4.700;2023-08-17T06:27:21;19.30;99.90
17152;DHT22;8691;50.828;4.700;2023-08-17T06:29:49;19.60;99.90
17152;DHT22;8691;50.828;4.700;2023-08-17T06:32:16;19.50;99.90
17152;DHT22;8691;50.828;4.700;2023-08-17T06:34:43;19.60;99.90
17152;DHT22;8691;50.828;4.700;2023-08-17T06:37:09;19.60;99.90
17152;DHT22;8691;50.828;4.700;2023-08-17T06:39:36;19.40;99.90
17152;DHT22;8691;50.828;4.700;2023-08-17T06:42:03;19.30;99.90
17152;DHT22;8691;50.828;4.700;2023-08-17T06:44:30;19.30;99.90
17152;DHT22;8691;50.828;4.700;2023-08-17T06:46:57;19.20;99.90
17152;DHT22;8691;50.828;4.700;2023-08-17T06:49:24;19.20;99.90
17152;DHT22;8691;50.828;4.700;2023-08-17T06:51:50;19.20;99.90
17152;DHT22;8691;50.828;4.700;2023-08-17T06:54:17;19.10;99.90
17152;DHT22;8691;50.828;4.700;2023-08-17T06:56:44;19.10;99.90
17152;DHT22;8691;50.828;4.700;2023-08-17T06:59:11;19.30;99.90
17152;DHT22;8691;50.828;4.700;2023-08-17T07:01:38;19.20;99.90
17152;DHT22;8691;50.828;4.700;2023-08-17T07:04:05;19.30;99.90
17152;DHT22;8691;50.828;4.700;2023-08-17T07:06:32;19.20;99.90
17152;DHT22;8691;50.828;4.700;2023-08-17T07:08:58;19.30;99.90
17152;DHT22;8691;50.828;4.700;2023-08-17T07:11:26;19.30;99.90
17152;DHT22;8691;50.828;4.700;2023-08-17T07:13:52;19.30;99.90
17152;DHT22;8691;50.828;4.700;2023-08-17T07:16:20;19.50;99.90
17152;DHT22;8691;50.828;4.700;2023-08-17T07:18:46;19.50;99.90
17152;DHT22;8691;50.828;4.700;2023-08-17T07:21:13;19.50;99.90
17152;DHT22;8691;50.828;4.700;2023-08-17T07:23:43;19.50;99.90
17152;DHT22;8691;50.828;4.700;2023-08-17T07:26:06;19.60;99.90
17152;DHT22;8691;50.828;4.700;2023-08-17T07:28:33;19.70;99.90
17152;DHT22;8691;50.828;4.700;2023-08-17T07:30:59;19.70;99.90
17152;DHT22;8691;50.828;4.700;2023-08-17T07:33:26;19.80;99.90
17152;DHT22;8691;50.828;4.700;2023-08-17T07:35:53;19.80;99.90
17152;DHT22;8691;50.828;4.700;2023-08-17T07:38:20;19.80;99.90
17152;DHT22;8691;50.828;4.700;2023-08-17T07:40:47;20.10;99.90
17152;DHT22;8691;50.828;4.700;2023-08-17T07:43:14;20.10;99.90
17152;DHT22;8691;50.828;4.700;2023-08-17T07:45:41;20.00;99.90
17152;DHT22;8691;50.828;4.700;2023-08-17T07:48:08;20.00;99.90
17152;DHT22;8691;50.828;4.700;2023-08-17T07:50:34;20.10;99.90
17152;DHT22;8691;50.828;4.700;2023-08-17T07:53:01;20.10;99.90
17152;DHT22;8691;50.828;4.700;2023-08-17T07:55:28;20.20;99.90
17152;DHT22;8691;50.828;4.700;2023-08-17T07:57:54;20.50;99.90
17152;DHT22;8691;50.828;4.700;2023-08-17T08:00:21;20.90;99.90
17152;DHT22;8691;50.828;4.700;2023-08-17T08:02:48;21.20;99.90
17152;DHT22;8691;50.828;4.700;2023-08-17T08:05:14;21.50;99.90
17152;DHT22;8691;50.828;4.700;2023-08-17T08:07:41;21.80;99.90
17152;DHT22;8691;50.828;4.700;2023-08-17T08:10:08;22.10;99.90
17152;DHT22;8691;50.828;4.700;2023-08-17T08:12:34;22.50;99.90
17152;DHT22;8691;50.828;4.700;2023-08-17T08:15:01;22.90;99.90
17152;DHT22;8691;50.828;4.700;2023-08-17T08:17:27;23.10;99.90
17152;DHT22;8691;50.828;4.700;2023-08-17T08:19:55;22.90;99.90
17152;DHT22;8691;50.828;4.700;2023-08-17T08:22:21;22.80;99.90
17152;DHT22;8691;50.828;4.700;2023-08-17T08:24:48;22.70;99.90
17152;DHT22;8691;50.828;4.700;2023-08-17T08:27:15;22.90;99.90
17152;DHT22;8691;50.828;4.700;2023-08-17T08:29:41;22.90;99.90
17152;DHT22;8691;50.828;4.700;2023-08-17T08:32:08;22.60;99.90
17152;DHT22;8691;50.828;4.700;2023-08-17T08:34:35;22.50;99.90
17152;DHT22;8691;50.828;4.700;2023-08-17T08:37:03;22.60;99.90
17152;DHT22;8691;50.828;4.700;2023-08-17T08:39:29;22.90;99.90
17152;DHT22;8691;50.828;4.700;2023-08-17T08:41:56;23.00;99.90
17152;DHT22;8691;50.828;4.700;2023-08-17T08:44:23;23.10;99.90
17152;DHT22;8691;50.828;4.700;2023-08-17T08:46:50;23.30;99.90
17152;DHT22;8691;50.828;4.700;2023-08-17T08:49:19;23.70;99.90
17152;DHT22;8691;50.828;4.700;2023-08-17T08:51:46;24.10;99.90
17152;DHT22;8691;50.828;4.700;2023-08-17T08:54:12;24.00;99.90
17152;DHT22;8691;50.828;4.700;2023-08-17T08:56:39;24.20;99.90
17152;DHT22;8691;50.828;4.700;2023-08-17T08:59:06;24.10;99.90
17152;DHT22;8691;50.828;4.700;2023-08-17T09:01:33;24.10;99.90
17152;DHT22;8691;50.828;4.700;2023-08-17T09:04:00;24.00;99.90
17152;DHT22;8691;50.828;4.700;2023-08-17T09:06:27;23.80;99.90
17152;DHT22;8691;50.828;4.700;2023-08-17T09:08:54;23.80;99.90
17152;DHT22;8691;50.828;4.700;2023-08-17T09:11:21;23.60;99.90
17152;DHT22;8691;50.828;4.700;2023-08-17T09:13:47;23.70;99.90
17152;DHT22;8691;50.828;4.700;2023-08-17T09:28:17;23.70;99.90
17152;DHT22;8691;50.828;4.700;2023-08-17T09:30:59;23.80;99.90
17152;DHT22;8691;50.828;4.700;2023-08-17T09:33:26;24.00;99.90
17152;DHT22;8691;50.828;4.700;2023-08-17T09:35:53;24.10;99.90
17152;DHT22;8691;50.828;4.700;2023-08-17T09:38:19;24.10;99.90
17152;DHT22;8691;50.828;4.700;2023-08-17T09:40:46;24.30;99.90
17152;DHT22;8691;50.828;4.700;2023-08-17T09:43:16;24.10;99.90
17152;DHT22;8691;50.828;4.700;2023-08-17T09:45:45;24.10;99.90
17152;DHT22;8691;50.828;4.700;2023-08-17T09:48:15;23.90;99.90
17152;DHT22;8691;50.828;4.700;2023-08-17T09:50:42;23.70;99.90
17152;DHT22;8691;50.828;4.700;2023-08-17T09:53:18;23.70;99.90
17152;DHT22;8691;50.828;4.700;2023-08-17T09:55:36;23.10;99.90
17152;DHT22;8691;50.828;4.700;2023-08-17T09:58:02;23.10;99.90
17152;DHT22;8691;50.828;4.700;2023-08-17T10:00:29;23.10;99.90
17152;DHT22;8691;50.828;4.700;2023-08-17T10:02:56;22.90;99.90
17152;DHT22;8691;50.828;4.700;2023-08-17T10:05:23;22.70;99.90
17152;DHT22;8691;50.828;4.700;2023-08-17T10:07:53;22.80;99.90
17152;DHT22;8691;50.828;4.700;2023-08-17T10:10:24;22.80;99.90
17152;DHT22;8691;50.828;4.700;2023-08-17T10:12:52;22.80;99.90
17152;DHT22;8691;50.828;4.700;2023-08-17T10:15:15;22.90;99.90
17152;DHT22;8691;50.828;4.700;2023-08-17T10:20:21;22.90;99.90
17152;DHT22;8691;50.828;4.700;2023-08-17T10:23:08;23.00;99.90
17152;DHT22;8691;50.828;4.700;2023-08-17T10:25:29;23.20;99.90
17152;DHT22;8691;50.828;4.700;2023-08-17T10:27:57;23.10;99.90
17152;DHT22;8691;50.828;4.700;2023-08-17T10:30:24;23.10;99.90
17152;DHT22;8691;50.828;4.700;2023-08-17T10:32:51;23.20;99.90
17152;DHT22;8691;50.828;4.700;2023-08-17T10:35:18;23.20;99.90
17152;DHT22;8691;50.828;4.700;2023-08-17T10:37:45;23.30;99.90
17152;DHT22;8691;50.828;4.700;2023-08-17T10:40:11;23.40;99.90
17152;DHT22;8691;50.828;4.700;2023-08-17T10:42:38;23.70;99.90
17152;DHT22;8691;50.828;4.700;2023-08-17T10:45:26;23.80;99.90
17152;DHT22;8691;50.828;4.700;2023-08-17T10:48:34;23.80;99.90
17152;DHT22;8691;50.828;4.700;2023-08-17T10:50:23;23.70;99.90
17152;DHT22;8691;50.828;4.700;2023-08-17T10:52:49;23.70;99.90
17152;DHT22;8691;50.828;4.700;2023-08-17T10:55:15;23.70;99.90
17152;DHT22;8691;50.828;4.700;2023-08-17T10:57:43;23.70;99.90
17152;DHT22;8691;50.828;4.700;2023-08-17T11:00:21;23.70;99.90
17152;DHT22;8691;50.828;4.700;2023-08-17T11:02:56;23.70;99.90
17152;DHT22;8691;50.828;4.700;2023-08-17T11:05:44;24.00;99.90
17152;DHT22;8691;50.828;4.700;2023-08-17T11:08:09;24.00;99.90
17152;DHT22;8691;50.828;4.700;2023-08-17T11:10:35;24.30;99.90
17152;DHT22;8691;50.828;4.700;2023-08-17T11:13:02;24.50;99.90
17152;DHT22;8691;50.828;4.700;2023-08-17T11:18:01;24.60;99.90
17152;DHT22;8691;50.828;4.700;2023-08-17T11:20:28;24.60;99.90
17152;DHT22;8691;50.828;4.700;2023-08-17T11:22:55;24.50;99.90
17152;DHT22;8691;50.828;4.700;2023-08-17T11:25:21;24.50;99.90
17152;DHT22;8691;50.828;4.700;2023-08-17T11:27:48;24.50;99.90
17152;DHT22;8691;50.828;4.700;2023-08-17T11:30:14;24.40;99.90
17152;DHT22;8691;50.828;4.700;2023-08-17T11:32:41;24.30;99.90
17152;DHT22;8691;50.828;4.700;2023-08-17T11:35:08;24.10;99.90
17152;DHT22;8691;50.828;4.700;2023-08-17T11:37:34;24.30;99.90
17152;DHT22;8691;50.828;4.700;2023-08-17T11:40:02;23.90;99.90
17152;DHT22;8691;50.828;4.700;2023-08-17T11:42:29;23.90;99.90
17152;DHT22;8691;50.828;4.700;2023-08-17T11:44:56;23.80;99.90
17152;DHT22;8691;50.828;4.700;2023-08-17T11:47:22;23.70;99.90
17152;DHT22;8691;50.828;4.700;2023-08-17T11:49:49;23.70;99.90
17152;DHT22;8691;50.828;4.700;2023-08-17T11:52:15;23.60;99.90
17152;DHT22;8691;50.828;4.700;2023-08-17T11:54:43;23.60;99.90
17152;DHT22;8691;50.828;4.700;2023-08-17T11:57:09;23.60;99.90
17152;DHT22;8691;50.828;4.700;2023-08-17T11:59:36;23.40;99.90
17152;DHT22;8691;50.828;4.700;2023-08-17T12:02:03;23.40;99.90
17152;DHT22;8691;50.828;4.700;2023-08-17T12:04:30;23.40;99.90
17152;DHT22;8691;50.828;4.700;2023-08-17T12:06:56;23.40;99.90
17152;DHT22;8691;50.828;4.700;2023-08-17T12:09:23;23.40;99.90
17152;DHT22;8691;50.828;4.700;2023-08-17T12:11:53;23.50;99.90
17152;DHT22;8691;50.828;4.700;2023-08-17T12:14:17;23.50;99.90
17152;DHT22;8691;50.828;4.700;2023-08-17T12:16:47;23.50;99.90
17152;DHT22;8691;50.828;4.700;2023-08-17T12:19:14;23.50;99.90
17152;DHT22;8691;50.828;4.700;2023-08-17T12:21:43;23.50;99.90
17152;DHT22;8691;50.828;4.700;2023-08-17T12:24:10;23.60;99.90
17152;DHT22;8691;50.828;4.700;2023-08-17T12:26:36;23.70;99.90
17152;DHT22;8691;50.828;4.700;2023-08-17T12:29:07;23.70;99.90
17152;DHT22;8691;50.828;4.700;2023-08-17T12:31:34;23.70;99.90
17152;DHT22;8691;50.828;4.700;2023-08-17T12:34:01;23.90;99.90
17152;DHT22;8691;50.828;4.700;2023-08-17T12:36:28;23.90;99.90
17152;DHT22;8691;50.828;4.700;2023-08-17T12:38:54;23.80;99.90
17152;DHT22;8691;50.828;4.700;2023-08-17T12:41:21;23.70;99.90
17152;DHT22;8691;50.828;4.700;2023-08-17T12:43:47;23.80;99.90
17152;DHT22;8691;50.828;4.700;2023-08-17T12:46:14;23.80;99.90
17152;DHT22;8691;50.828;4.700;2023-08-17T12:48:41;23.80;99.90
17152;DHT22;8691;50.828;4.700;2023-08-17T12:51:07;23.80;99.90
17152;DHT22;8691;50.828;4.700;2023-08-17T12:53:34;23.80;99.90
17152;DHT22;8691;50.828;4.700;2023-08-17T12:56:01;23.70;99.90
17152;DHT22;8691;50.828;4.700;2023-08-17T12:58:27;23.70;99.90
17152;DHT22;8691;50.828;4.700;2023-08-17T13:00:54;23.70;99.90
17152;DHT22;8691;50.828;4.700;2023-08-17T13:03:21;23.80;99.90
17152;DHT22;8691;50.828;4.700;2023-08-17T13:05:47;23.70;99.90
17152;DHT22;8691;50.828;4.700;2023-08-17T13:08:14;23.70;99.90
17152;DHT22;8691;50.828;4.700;2023-08-17T13:10:41;23.40;99.90
17152;DHT22;8691;50.828;4.700;2023-08-17T13:13:08;23.40;99.90
17152;DHT22;8691;50.828;4.700;2023-08-17T13:15:35;23.30;99.90
17152;DHT22;8691;50.828;4.700;2023-08-17T13:18:01;23.10;99.90
17152;DHT22;8691;50.828;4.700;2023-08-17T13:20:28;23.00;99.90
17152;DHT22;8691;50.828;4.700;2023-08-17T13:22:56;23.20;99.90
17152;DHT22;8691;50.828;4.700;2023-08-17T13:25:23;23.20;99.90
17152;DHT22;8691;50.828;4.700;2023-08-17T13:27:50;23.30;99.90
17152;DHT22;8691;50.828;4.700;2023-08-17T13:30:17;23.50;99.90
17152;DHT22;8691;50.828;4.700;2023-08-17T13:32:43;23.80;99.90
17152;DHT22;8691;50.828;4.700;2023-08-17T13:35:10;23.90;99.90
17152;DHT22;8691;50.828;4.700;2023-08-17T13:37:37;24.00;99.90
17152;DHT22;8691;50.828;4.700;2023-08-17T13:40:04;23.90;99.90
17152;DHT22;8691;50.828;4.700;2023-08-17T13:42:31;24.00;99.90
17152;DHT22;8691;50.828;4.700;2023-08-17T13:44:58;23.70;99.90
17152;DHT22;8691;50.828;4.700;2023-08-17T13:47:25;23.60;99.90
17152;DHT22;8691;50.828;4.700;2023-08-17T13:49:51;23.80;99.90
17152;DHT22;8691;50.828;4.700;2023-08-17T13:52:18;23.70;99.90
17152;DHT22;8691;50.828;4.700;2023-08-17T13:54:45;23.60;99.90
17152;DHT22;8691;50.828;4.700;2023-08-17T13:57:11;23.50;99.90
17152;DHT22;8691;50.828;4.700;2023-08-17T13:59:38;23.40;99.90
17152;DHT22;8691;50.828;4.700;2023-08-17T14:02:04;23.50;99.90
17152;DHT22;8691;50.828;4.700;2023-08-17T14:04:32;23.20;99.90
17152;DHT22;8691;50.828;4.700;2023-08-17T14:06:59;23.20;99.90
17152;DHT22;8691;50.828;4.700;2023-08-17T14:09:25;23.10;99.90
17152;DHT22;8691;50.828;4.700;2023-08-17T14:11:52;23.10;99.90
17152;DHT22;8691;50.828;4.700;2023-08-17T14:14:19;23.30;99.90
17152;DHT22;8691;50.828;4.700;2023-08-17T14:16:45;23.60;99.90
17152;DHT22;8691;50.828;4.700;2023-08-17T14:19:12;23.70;99.90
17152;DHT22;8691;50.828;4.700;2023-08-17T14:21:38;23.80;99.90
17152;DHT22;8691;50.828;4.700;2023-08-17T14:24:05;24.00;99.90
17152;DHT22;8691;50.828;4.700;2023-08-17T14:26:32;24.10;99.90
17152;DHT22;8691;50.828;4.700;2023-08-17T14:28:58;24.30;99.90
17152;DHT22;8691;50.828;4.700;2023-08-17T14:31:25;24.40;99.90
17152;DHT22;8691;50.828;4.700;2023-08-17T14:33:53;24.50;99.90
17152;DHT22;8691;50.828;4.700;2023-08-17T14:36:19;24.40;99.90
17152;DHT22;8691;50.828;4.700;2023-08-17T14:38:46;24.60;99.90
17152;DHT22;8691;50.828;4.700;2023-08-17T14:41:12;24.70;99.90
17152;DHT22;8691;50.828;4.700;2023-08-17T14:43:39;24.60;99.90
17152;DHT22;8691;50.828;4.700;2023-08-17T14:46:05;24.70;99.90
17152;DHT22;8691;50.828;4.700;2023-08-17T14:48:32;24.70;99.90
17152;DHT22;8691;50.828;4.700;2023-08-17T14:50:59;24.80;99.90
17152;DHT22;8691;50.828;4.700;2023-08-17T14:53:26;24.80;99.90
17152;DHT22;8691;50.828;4.700;2023-08-17T14:55:54;24.70;99.90
17152;DHT22;8691;50.828;4.700;2023-08-17T14:58:20;24.60;99.90
17152;DHT22;8691;50.828;4.700;2023-08-17T15:00:47;24.50;99.90
17152;DHT22;8691;50.828;4.700;2023-08-17T15:03:14;24.50;99.90
17152;DHT22;8691;50.828;4.700;2023-08-17T15:05:41;24.60;99.90
17152;DHT22;8691;50.828;4.700;2023-08-17T15:08:07;24.90;99.90
17152;DHT22;8691;50.828;4.700;2023-08-17T15:10:34;24.90;99.90
17152;DHT22;8691;50.828;4.700;2023-08-17T15:13:01;24.80;99.90
17152;DHT22;8691;50.828;4.700;2023-08-17T15:15:27;24.60;99.90
17152;DHT22;8691;50.828;4.700;2023-08-17T15:17:54;24.50;99.90
17152;DHT22;8691;50.828;4.700;2023-08-17T15:20:21;24.50;99.90
17152;DHT22;8691;50.828;4.700;2023-08-17T15:22:48;24.40;99.90
17152;DHT22;8691;50.828;4.700;2023-08-17T15:25:14;24.40;99.90
17152;DHT22;8691;50.828;4.700;2023-08-17T15:27:41;24.50;99.90
17152;DHT22;8691;50.828;4.700;2023-08-17T15:30:08;24.40;99.90
17152;DHT22;8691;50.828;4.700;2023-08-17T15:32:34;24.40;99.90
17152;DHT22;8691;50.828;4.700;2023-08-17T15:35:02;24.10;99.90
17152;DHT22;8691;50.828;4.700;2023-08-17T15:37:28;24.00;99.90
17152;DHT22;8691;50.828;4.700;2023-08-17T15:39:55;24.10;99.90
17152;DHT22;8691;50.828;4.700;2023-08-17T15:42:22;24.10;99.90
17152;DHT22;8691;50.828;4.700;2023-08-17T15:44:50;24.10;99.90
17152;DHT22;8691;50.828;4.700;2023-08-17T15:47:15;24.20;99.90
17152;DHT22;8691;50.828;4.700;2023-08-17T15:49:42;24.10;99.90
17152;DHT22;8691;50.828;4.700;2023-08-17T15:52:09;24.10;99.90
17152;DHT22;8691;50.828;4.700;2023-08-17T15:54:35;24.20;99.90
17152;DHT22;8691;50.828;4.700;2023-08-17T15:57:05;24.00;99.90
17152;DHT22;8691;50.828;4.700;2023-08-17T15:59:32;23.90;99.90
17152;DHT22;8691;50.828;4.700;2023-08-17T16:01:58;24.20;99.90
17152;DHT22;8691;50.828;4.700;2023-08-17T16:04:26;24.40;99.90
17152;DHT22;8691;50.828;4.700;2023-08-17T16:06:53;24.40;99.90